createdAt,value
2023-05-20T00:01:03.442Z,43.1
2023-05-20T00:02:19.729Z,42.5
2023-05-20T00:03:36.028Z,42.3
2023-05-20T00:04:52.336Z,43.6
2023-05-20T00:06:08.613Z,43
2023-05-20T00:07:24.918Z,42.8
2023-05-20T00:08:41.217Z,45.2
2023-05-20T00:09:57.502Z,43.1
2023-05-20T00:11:13.809Z,42.8
2023-05-20T00:12:30.108Z,43.1
2023-05-20T00:13:46.388Z,43.1
2023-05-20T00:15:02.673Z,43
2023-05-20T00:16:18.006Z,43.1
2023-05-20T00:18:50.593Z,42.8
2023-05-20T00:20:06.885Z,43.9
2023-05-20T00:21:23.185Z,43.8
2023-05-20T00:22:39.469Z,42.7
2023-05-20T00:23:55.757Z,43
2023-05-20T00:25:12.060Z,43.1
2023-05-20T00:26:28.348Z,44.4
2023-05-20T00:27:44.636Z,43.1
2023-05-20T00:29:00.946Z,44.4
2023-05-20T00:30:17.227Z,43.9
2023-05-20T00:31:33.530Z,43.8
2023-05-20T00:32:48.837Z,44.1
2023-05-20T00:34:05.143Z,43.8
2023-05-20T00:35:21.421Z,43.8
2023-05-20T00:36:37.725Z,45.2
2023-05-20T00:37:54.013Z,43
2023-05-20T00:39:10.316Z,43.1
2023-05-20T00:40:25.617Z,43.1
2023-05-20T00:41:41.912Z,42.7
2023-05-20T00:42:58.211Z,43.3
2023-05-20T00:44:14.506Z,43.1
2023-05-20T00:45:30.810Z,43.1
2023-05-20T00:46:47.095Z,43.1
2023-05-20T00:48:03.390Z,43.3
2023-05-20T00:49:19.688Z,43.5
2023-05-20T00:50:35.973Z,43
2023-05-20T00:51:52.265Z,49.7
2023-05-20T00:53:08.570Z,42.8
2023-05-20T00:54:24.863Z,46.5
2023-05-20T00:55:41.166Z,42.8
2023-05-20T00:56:56.458Z,43.8
2023-05-20T00:58:12.772Z,45.1
2023-05-20T00:59:29.064Z,43
2023-05-20T01:00:45.356Z,44.3
2023-05-20T01:02:01.648Z,43.5
2023-05-20T01:03:17.943Z,42.2
2023-05-20T01:04:34.236Z,43.8
2023-05-20T01:05:50.526Z,44.9
2023-05-20T01:07:06.822Z,43.6
2023-05-20T01:08:23.111Z,42.8
2023-05-20T01:09:39.402Z,44.1
2023-05-20T01:10:55.700Z,43.9
2023-05-20T01:12:11.998Z,42.5
2023-05-20T01:13:27.303Z,43.1
2023-05-20T01:14:43.613Z,43.9
2023-05-20T01:15:59.906Z,43.6
2023-05-20T01:17:16.186Z,43
2023-05-20T01:18:32.478Z,43.1
2023-05-20T01:19:48.791Z,43.1
2023-05-20T01:21:05.067Z,42.7
2023-05-20T01:22:21.361Z,47.2
2023-05-20T01:23:37.653Z,45.7
2023-05-20T01:24:53.953Z,43.6
2023-05-20T01:26:10.248Z,44.6
2023-05-20T01:27:26.543Z,43.8
2023-05-20T01:28:42.835Z,48.6
2023-05-20T01:29:58.153Z,45.9
2023-05-20T01:31:14.445Z,43.1
2023-05-20T01:32:30.743Z,44.1
2023-05-20T01:33:47.035Z,44.3
2023-05-20T01:35:03.323Z,47.8
2023-05-20T01:36:19.620Z,50.7
2023-05-20T01:37:35.925Z,45.4
2023-05-20T01:38:52.213Z,44.1
2023-05-20T01:40:08.503Z,44.1
2023-05-20T01:41:24.794Z,45.4
2023-05-20T01:42:41.104Z,45.6
2023-05-20T01:43:57.387Z,44.4
2023-05-20T01:45:13.678Z,45.4
2023-05-20T01:46:28.987Z,44.4
2023-05-20T01:47:45.275Z,44.4
2023-05-20T01:49:01.567Z,43.8
2023-05-20T01:50:17.878Z,45.6
2023-05-20T01:51:34.168Z,44.4
2023-05-20T01:52:50.472Z,45.2
2023-05-20T01:54:06.765Z,43.3
2023-05-20T01:55:23.048Z,43.1
2023-05-20T01:56:39.339Z,44.7
2023-05-20T01:57:55.643Z,43.1
2023-05-20T01:59:11.928Z,43
2023-05-20T02:00:28.242Z,45.6
2023-05-20T02:01:44.526Z,43.6
2023-05-20T02:02:59.836Z,43.8
2023-05-20T02:04:16.128Z,44.6
2023-05-20T02:05:32.416Z,44.1
2023-05-20T02:06:48.704Z,43.1
2023-05-20T02:08:05.021Z,48.5
2023-05-20T02:09:21.317Z,43.8
2023-05-20T02:10:37.610Z,44.1
2023-05-20T02:11:53.902Z,48.5
2023-05-20T02:13:10.190Z,44.3
2023-05-20T02:14:26.476Z,44.9
2023-05-20T02:15:42.775Z,44.4
2023-05-20T02:16:59.072Z,43.9
2023-05-20T02:18:15.375Z,42.8
2023-05-20T02:19:30.673Z,52.6
2023-05-20T02:20:46.976Z,43.6
2023-05-20T02:22:03.262Z,46.2
2023-05-20T02:23:19.556Z,48.9
2023-05-20T02:24:35.846Z,46.5
2023-05-20T02:25:52.141Z,48.3
2023-05-20T02:27:08.440Z,44.4
2023-05-20T02:28:24.734Z,48.3
2023-05-20T02:29:41.034Z,52.6
2023-05-20T02:30:57.320Z,57.3
2023-05-20T02:32:13.627Z,45.1
2023-05-20T02:33:29.921Z,61.2
2023-05-20T02:34:46.205Z,58.4
2023-05-20T02:36:01.522Z,47.6
2023-05-20T02:37:17.804Z,52.6
2023-05-20T02:38:34.093Z,48.6
2023-05-20T02:39:50.414Z,60.1
2023-05-20T02:41:06.706Z,67.3
2023-05-20T02:42:23.000Z,56.8
2023-05-20T02:43:39.228Z,53.3
2023-05-20T02:44:55.489Z,57.2
2023-05-20T02:46:11.714Z,51.7
2023-05-20T02:47:27.963Z,65.2
2023-05-20T02:48:44.220Z,53.4
2023-05-20T02:50:00.506Z,55.4
2023-05-20T02:51:16.807Z,51.5
2023-05-20T02:52:32.124Z,53
2023-05-20T02:53:48.399Z,51.4
2023-05-20T02:55:04.693Z,65.2
2023-05-20T02:56:21.001Z,45.7
2023-05-20T02:57:37.280Z,54.3
2023-05-20T02:58:53.541Z,49.3
2023-05-20T03:00:09.788Z,65
2023-05-20T03:01:26.011Z,58.3
2023-05-20T03:02:42.273Z,52.2
2023-05-20T03:03:58.510Z,49.1
2023-05-20T03:05:14.748Z,56.7
2023-05-20T03:06:30.982Z,60.9
2023-05-20T03:07:47.235Z,51.2
2023-05-20T03:09:02.481Z,53.6
2023-05-20T03:10:18.722Z,48.9
2023-05-20T03:11:34.954Z,50.9
2023-05-20T03:12:51.196Z,50.7
2023-05-20T03:14:07.442Z,49.1
2023-05-20T03:15:23.685Z,50.4
2023-05-20T03:16:39.910Z,58
2023-05-20T03:17:56.159Z,52.3
2023-05-20T03:19:12.409Z,52.6
2023-05-20T03:20:28.643Z,47.3
2023-05-20T03:21:44.888Z,47.2
2023-05-20T03:23:01.118Z,48.5
2023-05-20T03:24:17.361Z,58.6
2023-05-20T03:25:32.614Z,59.6
2023-05-20T03:26:48.863Z,48.9
2023-05-20T03:28:05.105Z,44.7
2023-05-20T03:29:21.354Z,44.4
2023-05-20T03:30:37.580Z,57.5
2023-05-20T03:31:53.838Z,49.7
2023-05-20T03:33:10.053Z,45.2
2023-05-20T03:34:26.318Z,53.9
2023-05-20T03:35:42.558Z,44.6
2023-05-20T03:36:58.789Z,43.9
2023-05-20T03:38:15.021Z,48.1
2023-05-20T03:39:31.271Z,50.5
2023-05-20T03:40:47.502Z,62.1
2023-05-20T03:42:02.762Z,45.6
2023-05-20T03:43:19.006Z,46
2023-05-20T03:44:35.249Z,57.2
2023-05-20T03:45:51.483Z,58
2023-05-20T03:47:07.727Z,55.1
2023-05-20T03:48:23.969Z,52.2
2023-05-20T03:49:40.201Z,54.7
2023-05-20T03:50:56.451Z,59.4
2023-05-20T03:52:12.682Z,51.7
2023-05-20T03:53:28.928Z,53.1
2023-05-20T03:54:45.164Z,54.1
2023-05-20T03:56:01.403Z,61.5
2023-05-20T03:57:17.657Z,49.9
2023-05-20T03:58:32.911Z,57.3
2023-05-20T03:59:49.138Z,60.2
2023-05-20T04:01:05.393Z,51.5
2023-05-20T04:02:21.619Z,48.5
2023-05-20T04:03:37.854Z,56.7
2023-05-20T04:04:54.116Z,48.8
2023-05-20T04:07:26.596Z,46.5
2023-05-20T04:08:42.840Z,46.2
2023-05-20T04:09:59.064Z,43.9
2023-05-20T04:11:15.310Z,43.9
2023-05-20T04:12:31.542Z,46.8
2023-05-20T04:13:47.789Z,48.6
2023-05-20T04:15:03.041Z,50.9
2023-05-20T04:16:19.282Z,49.7
2023-05-20T04:17:35.527Z,61
2023-05-20T04:18:51.760Z,53.3
2023-05-20T04:20:08.004Z,50.4
2023-05-20T04:21:24.240Z,48.8
2023-05-20T04:22:40.491Z,48.1
2023-05-20T04:23:56.718Z,44.4
2023-05-20T04:25:12.972Z,56.5
2023-05-20T04:26:29.206Z,46.5
2023-05-20T04:27:45.442Z,53
2023-05-20T04:29:01.688Z,57.8
2023-05-20T04:30:17.941Z,58.9
2023-05-20T04:31:33.198Z,52
2023-05-20T04:32:49.437Z,49.1
2023-05-20T04:34:05.659Z,56.3
2023-05-20T04:35:21.919Z,53.4
2023-05-20T04:36:38.155Z,54.4
2023-05-20T04:37:54.387Z,54.1
2023-05-20T04:39:10.622Z,50.4
2023-05-20T04:40:26.864Z,48.5
2023-05-20T04:41:43.100Z,52.3
2023-05-20T04:42:59.358Z,57.5
2023-05-20T04:44:15.588Z,48.3
2023-05-20T04:45:31.830Z,51.7
2023-05-20T04:46:48.065Z,55.5
2023-05-20T04:48:03.326Z,54.6
2023-05-20T04:49:19.555Z,48.1
2023-05-20T04:50:35.800Z,51.4
2023-05-20T04:51:52.047Z,45.7
2023-05-20T04:53:08.000Z,51.8
2023-05-20T04:54:24.528Z,44.3
2023-05-20T04:55:39.793Z,48
2023-05-20T04:56:56.034Z,44.7
2023-05-20T04:58:12.274Z,44.6
2023-05-20T04:59:28.509Z,47.6
2023-05-20T05:00:44.749Z,57.2
2023-05-20T05:02:00.995Z,54.1
2023-05-20T05:03:17.227Z,58.8
2023-05-20T05:04:33.469Z,47.5
2023-05-20T05:05:49.716Z,45.2
2023-05-20T05:07:05.949Z,57.5
2023-05-20T05:08:22.183Z,60.2
2023-05-20T05:09:38.432Z,46.7
2023-05-20T05:10:54.678Z,46.7
2023-05-20T05:12:09.936Z,46
2023-05-20T05:13:26.178Z,45.7
2023-05-20T05:14:42.402Z,50.1
2023-05-20T05:15:58.650Z,58.4
2023-05-20T05:17:14.888Z,48.9
2023-05-20T05:18:31.134Z,54.3
2023-05-20T05:19:47.365Z,60.7
2023-05-20T05:21:03.619Z,64.4
2023-05-20T05:22:19.840Z,56.2
2023-05-20T05:23:36.097Z,56.5
2023-05-20T05:24:52.329Z,57.2
2023-05-20T05:26:08.585Z,48.9
2023-05-20T05:27:24.817Z,56.3
2023-05-20T05:28:40.068Z,57.8
2023-05-20T05:29:56.307Z,59.4
2023-05-20T05:31:12.555Z,48.6
2023-05-20T05:32:28.792Z,50.4
2023-05-20T05:33:45.038Z,56.2
2023-05-20T05:35:01.281Z,59.2
2023-05-20T05:36:17.524Z,49.4
2023-05-20T05:37:33.750Z,60.7
2023-05-20T05:38:49.998Z,59.1
2023-05-20T05:40:06.239Z,52
2023-05-20T05:41:22.475Z,48.5
2023-05-20T05:42:38.714Z,51
2023-05-20T05:43:54.950Z,50.2
2023-05-20T05:45:10.211Z,47.5
2023-05-20T05:46:26.447Z,46
2023-05-20T05:47:42.685Z,49.1
2023-05-20T05:48:58.934Z,49.1
2023-05-20T05:50:15.166Z,48.6
2023-05-20T05:51:31.416Z,53.8
2023-05-20T05:52:47.639Z,46.7
2023-05-20T05:54:03.890Z,49.9
2023-05-20T05:55:20.127Z,49.4
2023-05-20T05:56:36.376Z,47.6
2023-05-20T05:57:52.617Z,48.5
2023-05-20T05:59:08.858Z,56.2
2023-05-20T06:00:25.085Z,48.6
2023-05-20T06:01:40.363Z,50.9
2023-05-20T06:02:56.596Z,52.5
2023-05-20T06:04:12.819Z,52.6
2023-05-20T06:05:29.086Z,52.3
2023-05-20T06:06:45.319Z,49.1
2023-05-20T06:08:01.566Z,50.1
2023-05-20T06:09:17.788Z,59.7
2023-05-20T06:10:34.033Z,49.3
2023-05-20T06:11:50.275Z,50.9
2023-05-20T06:13:06.518Z,55.1
2023-05-20T06:14:22.769Z,59.9
2023-05-20T06:15:38.989Z,57.3
2023-05-20T06:16:55.243Z,59.1
2023-05-20T06:18:10.503Z,49.9
2023-05-20T06:19:26.737Z,53.9
2023-05-20T06:20:42.974Z,53.8
2023-05-20T06:21:59.226Z,46.2
2023-05-20T06:23:15.466Z,48.1
2023-05-20T06:24:31.704Z,48.3
2023-05-20T06:25:47.946Z,57.5
2023-05-20T06:27:04.168Z,48
2023-05-20T06:28:20.414Z,46.2
2023-05-20T06:29:36.664Z,48.5
2023-05-20T06:30:52.895Z,48.6
2023-05-20T06:32:09.144Z,56.7
2023-05-20T06:33:25.372Z,48.6
2023-05-20T06:34:40.641Z,53.3
2023-05-20T06:35:56.867Z,50.4
2023-05-20T06:37:13.108Z,48.6
2023-05-20T06:38:29.355Z,49.3
2023-05-20T06:39:45.596Z,85.4
2023-05-20T06:41:01.835Z,84.7
2023-05-20T06:42:18.075Z,85.2
2023-05-20T06:43:34.314Z,85.5
2023-05-20T06:44:50.564Z,85.5
2023-05-20T06:46:06.804Z,85.8
2023-05-20T06:47:23.045Z,85.5
2023-05-20T06:48:39.284Z,85.4
2023-05-20T06:49:55.513Z,85.7
2023-05-20T06:51:10.780Z,49.3
2023-05-20T06:52:27.010Z,65.9
2023-05-20T06:53:43.248Z,51.5
2023-05-20T06:54:59.492Z,84.4
2023-05-20T06:56:15.735Z,85.7
2023-05-20T06:57:31.972Z,85.8
2023-05-20T06:58:48.207Z,86
2023-05-20T07:00:04.462Z,86.3
2023-05-20T07:01:20.693Z,86.2
2023-05-20T07:02:36.933Z,48.6
2023-05-20T07:03:53.169Z,50.2
2023-05-20T07:05:09.423Z,58.3
2023-05-20T07:06:25.666Z,47.8
2023-05-20T07:07:40.919Z,47
2023-05-20T07:08:57.145Z,58.1
2023-05-20T07:10:13.383Z,49.1
2023-05-20T07:11:29.645Z,53.6
2023-05-20T07:12:45.868Z,47.2
2023-05-20T07:14:02.122Z,46.4
2023-05-20T07:15:18.360Z,48.6
2023-05-20T07:16:34.592Z,49.4
2023-05-20T07:17:50.846Z,53.8
2023-05-20T07:19:07.078Z,49.6
2023-05-20T07:20:23.314Z,62
2023-05-20T07:21:39.552Z,55.9
2023-05-20T07:22:55.804Z,47.2
2023-05-20T07:24:11.047Z,56.2
2023-05-20T07:25:27.292Z,49.3
2023-05-20T07:26:43.533Z,48.3
2023-05-20T07:27:59.782Z,49.4
2023-05-20T07:29:16.012Z,49.4
2023-05-20T07:30:32.245Z,48.8
2023-05-20T07:31:48.498Z,48
2023-05-20T07:33:04.726Z,50.7
2023-05-20T07:34:20.966Z,48.9
2023-05-20T07:35:37.211Z,84.7
2023-05-20T07:36:53.452Z,85.8
2023-05-20T07:38:09.708Z,85.5
2023-05-20T07:39:25.930Z,86
2023-05-20T07:40:41.181Z,85.8
2023-05-20T07:41:57.429Z,86
2023-05-20T07:43:13.684Z,86.3
2023-05-20T07:44:29.926Z,86
2023-05-20T07:45:46.167Z,85.7
2023-05-20T07:47:02.396Z,86
2023-05-20T07:48:18.625Z,86
2023-05-20T07:49:34.872Z,85.4
2023-05-20T07:50:51.125Z,86.2
2023-05-20T07:52:07.354Z,85.7
2023-05-20T07:53:23.599Z,86.3
2023-05-20T07:54:39.836Z,86.3
2023-05-20T07:55:56.081Z,86
2023-05-20T07:57:11.344Z,86.3
2023-05-20T07:58:27.577Z,86.2
2023-05-20T07:59:43.824Z,53
2023-05-20T08:01:00.064Z,50.4
2023-05-20T08:02:16.290Z,48.8
2023-05-20T08:03:32.531Z,53
2023-05-20T08:04:48.769Z,50.2
2023-05-20T08:06:05.026Z,51.5
2023-05-20T08:07:21.257Z,48.9
2023-05-20T08:08:37.500Z,49.7
2023-05-20T08:09:53.744Z,50.1
2023-05-20T08:11:09.971Z,51.5
2023-05-20T08:12:26.216Z,53.9
2023-05-20T08:13:41.483Z,49.1
2023-05-20T08:14:57.717Z,51.8
2023-05-20T08:16:13.956Z,49.7
2023-05-20T08:17:30.202Z,55.1
2023-05-20T08:18:46.445Z,53
2023-05-20T08:20:02.677Z,50.4
2023-05-20T08:21:18.930Z,48.3
2023-05-20T08:22:35.150Z,50.1
2023-05-20T08:23:51.407Z,52.2
2023-05-20T08:25:07.633Z,48.9
2023-05-20T08:26:23.882Z,48.9
2023-05-20T08:27:40.128Z,53.8
2023-05-20T08:28:56.353Z,47.8
2023-05-20T08:30:11.616Z,51.4
2023-05-20T08:31:27.867Z,49.3
2023-05-20T08:32:44.107Z,50.2
2023-05-20T08:34:00.335Z,51.5
2023-05-20T08:35:16.575Z,49.4
2023-05-20T08:36:32.828Z,51
2023-05-20T08:37:49.055Z,50.9
2023-05-20T08:39:05.290Z,48.3
2023-05-20T08:40:21.540Z,51.5
2023-05-20T08:41:37.773Z,50.4
2023-05-20T08:42:54.025Z,49.4
2023-05-20T08:44:10.259Z,52
2023-05-20T08:45:26.500Z,50.2
2023-05-20T08:46:41.757Z,49.6
2023-05-20T08:47:57.991Z,52.8
2023-05-20T08:49:14.230Z,52.5
2023-05-20T08:50:30.464Z,51.5
2023-05-20T08:51:46.727Z,50.4
2023-05-20T08:53:02.958Z,48.9
2023-05-20T08:54:19.208Z,52.5
2023-05-20T08:55:35.434Z,50.1
2023-05-20T08:56:51.675Z,50.2
2023-05-20T08:58:07.928Z,49.9
2023-05-20T08:59:24.154Z,49.7
2023-05-20T09:00:40.413Z,50.4
2023-05-20T09:01:56.638Z,51.5
2023-05-20T09:03:11.899Z,49.6
2023-05-20T09:04:28.128Z,48.8
2023-05-20T09:05:44.370Z,48.3
2023-05-20T09:07:00.618Z,51.2
2023-05-20T09:08:16.848Z,48.5
2023-05-20T09:09:33.108Z,48.9
2023-05-20T09:10:48.360Z,52
2023-05-20T09:12:04.609Z,49.6
2023-05-20T09:13:20.833Z,50.4
2023-05-20T09:14:37.073Z,50.7
2023-05-20T09:15:53.322Z,48.6
2023-05-20T09:17:09.571Z,51
2023-05-20T09:18:25.799Z,54.3
2023-05-20T09:19:42.048Z,49.7
2023-05-20T09:20:58.281Z,48.9
2023-05-20T09:22:14.529Z,55.2
2023-05-20T09:23:30.771Z,50.4
2023-05-20T09:24:47.008Z,48.9
2023-05-20T09:26:03.250Z,56.8
2023-05-20T09:27:18.504Z,51.5
2023-05-20T09:28:34.736Z,50.2
2023-05-20T09:29:50.981Z,53.1
2023-05-20T09:31:07.232Z,49.4
2023-05-20T09:32:23.458Z,48.6
2023-05-20T09:33:39.703Z,50.2
2023-05-20T09:34:55.936Z,49.7
2023-05-20T09:36:12.186Z,52
2023-05-20T09:37:28.415Z,48.9
2023-05-20T09:38:44.657Z,51.5
2023-05-20T09:40:00.908Z,50.7
2023-05-20T09:41:17.136Z,48.9
2023-05-20T09:42:33.383Z,49.9
2023-05-20T09:43:48.650Z,49.7
2023-05-20T09:45:04.889Z,49.6
2023-05-20T09:46:21.114Z,48.5
2023-05-20T09:47:37.370Z,50.7
2023-05-20T09:48:53.593Z,52.8
2023-05-20T09:50:09.841Z,46.7
2023-05-20T09:51:26.068Z,48.6
2023-05-20T09:52:42.315Z,49.9
2023-05-20T09:53:58.551Z,49.9
2023-05-20T09:55:14.797Z,47.8
2023-05-20T09:56:31.036Z,47
2023-05-20T09:57:47.279Z,48.9
2023-05-20T09:59:03.513Z,50.9
2023-05-20T10:00:18.771Z,49.4
2023-05-20T10:01:35.029Z,48.9
2023-05-20T10:02:51.264Z,49.3
2023-05-20T10:04:07.501Z,47.8
2023-05-20T10:05:23.756Z,48.6
2023-05-20T10:06:39.980Z,48.5
2023-05-20T10:07:56.219Z,48.1
2023-05-20T10:09:12.453Z,53.8
2023-05-20T10:10:28.711Z,48.9
2023-05-20T10:11:44.940Z,50.1
2023-05-20T10:13:01.186Z,49.1
2023-05-20T10:14:17.443Z,48.3
2023-05-20T10:15:33.693Z,51.5
2023-05-20T10:16:48.950Z,48.3
2023-05-20T10:18:05.182Z,50.1
2023-05-20T10:19:21.420Z,48
2023-05-20T10:20:37.660Z,46.8
2023-05-20T10:21:53.891Z,48.9
2023-05-20T10:23:10.151Z,50.1
2023-05-20T10:24:26.371Z,48.1
2023-05-20T10:25:42.626Z,53
2023-05-20T10:26:58.872Z,46.8
2023-05-20T10:28:15.103Z,56.7
2023-05-20T10:29:31.347Z,47.5
2023-05-20T10:30:47.587Z,48.9
2023-05-20T10:32:03.831Z,51.7
2023-05-20T10:33:19.080Z,49.1
2023-05-20T10:34:35.319Z,48.3
2023-05-20T10:35:51.559Z,46.7
2023-05-20T10:37:07.795Z,47.8
2023-05-20T10:38:24.047Z,46.8
2023-05-20T10:39:40.283Z,47.5
2023-05-20T10:40:56.512Z,58.3
2023-05-20T10:42:12.750Z,46.2
2023-05-20T10:43:28.984Z,48.8
2023-05-20T10:44:45.232Z,47.8
2023-05-20T10:46:01.479Z,47.8
2023-05-20T10:47:17.720Z,47.2
2023-05-20T10:48:33.953Z,47.5
2023-05-20T10:49:49.212Z,50.4
2023-05-20T10:51:05.448Z,58.1
2023-05-20T10:52:21.705Z,47.5
2023-05-20T10:53:37.948Z,48.1
2023-05-20T10:54:54.176Z,49.9
2023-05-20T10:56:10.410Z,50.4
2023-05-20T10:58:42.893Z,46
2023-05-20T10:59:59.149Z,45.4
2023-05-20T11:01:15.371Z,48.8
2023-05-20T11:02:31.615Z,48
2023-05-20T11:03:47.869Z,54.9
2023-05-20T11:05:04.090Z,47.3
2023-05-20T11:06:19.355Z,48.5
2023-05-20T11:07:35.588Z,49.4
2023-05-20T11:08:51.844Z,47.2
2023-05-20T11:10:08.068Z,45.7
2023-05-20T11:11:24.313Z,45.4
2023-05-20T11:12:40.557Z,47
2023-05-20T11:13:56.800Z,46.7
2023-05-20T11:15:13.028Z,48.6
2023-05-20T11:16:29.274Z,49.9
2023-05-20T11:17:45.523Z,47.5
2023-05-20T11:19:01.767Z,52
2023-05-20T11:20:17.985Z,46.2
2023-05-20T11:21:34.249Z,56
2023-05-20T11:22:49.490Z,62.8
2023-05-20T11:24:05.740Z,48.8
2023-05-20T11:25:21.968Z,46.5
2023-05-20T11:26:38.203Z,51.8
2023-05-20T11:27:54.446Z,50.4
2023-05-20T11:29:10.696Z,58.8
2023-05-20T11:30:26.929Z,47
2023-05-20T11:31:43.171Z,46.4
2023-05-20T11:32:59.422Z,54.1
2023-05-20T11:34:15.659Z,48.3
2023-05-20T11:35:31.892Z,47.8
2023-05-20T11:36:48.136Z,47.3
2023-05-20T11:38:04.382Z,54.9
2023-05-20T11:39:19.623Z,53.4
2023-05-20T11:40:35.865Z,50.5
2023-05-20T11:41:52.105Z,47
2023-05-20T11:43:08.357Z,54.3
2023-05-20T11:44:24.592Z,56.8
2023-05-20T11:45:40.822Z,54.3
2023-05-20T11:46:57.067Z,50.1
2023-05-20T11:48:13.302Z,46.8
2023-05-20T11:49:29.555Z,46.5
2023-05-20T11:50:45.803Z,46.2
2023-05-20T11:52:02.030Z,47.2
2023-05-20T11:53:18.268Z,48.5
2023-05-20T11:54:34.503Z,45.9
2023-05-20T11:55:49.757Z,51.5
2023-05-20T11:57:06.012Z,47.2
2023-05-20T11:58:22.249Z,52.2
2023-05-20T11:59:38.490Z,47.6
2023-05-20T12:00:54.725Z,47
2023-05-20T12:02:10.973Z,47.3
2023-05-20T12:03:27.219Z,50.9
2023-05-20T12:04:43.442Z,47.2
2023-05-20T12:05:59.684Z,50.4
2023-05-20T12:07:15.933Z,49.6
2023-05-20T12:08:32.163Z,48
2023-05-20T12:09:48.415Z,58.3
2023-05-20T12:11:04.643Z,47.3
2023-05-20T12:12:19.904Z,54.3
2023-05-20T12:13:36.138Z,56.5
2023-05-20T12:14:52.396Z,51.7
2023-05-20T12:16:08.631Z,48.9
2023-05-20T12:17:24.873Z,46.8
2023-05-20T12:18:41.105Z,56.8
2023-05-20T12:19:57.353Z,51.8
2023-05-20T12:21:13.588Z,51.7
2023-05-20T12:22:29.826Z,47.3
2023-05-20T12:23:46.058Z,57.5
2023-05-20T12:25:02.316Z,48.1
2023-05-20T12:26:18.543Z,47.2
2023-05-20T12:27:34.794Z,50.9
2023-05-20T12:28:50.048Z,46.2
2023-05-20T12:30:06.275Z,49.6
2023-05-20T12:31:22.526Z,50.4
2023-05-20T12:32:38.758Z,49.9
2023-05-20T12:33:54.996Z,48.9
2023-05-20T12:35:11.255Z,52.5
2023-05-20T12:36:27.486Z,49.7
2023-05-20T12:37:43.733Z,51.5
2023-05-20T12:38:59.958Z,48.9
2023-05-20T12:40:16.194Z,49.9
2023-05-20T12:41:32.447Z,47.5
2023-05-20T12:42:48.692Z,64.1
2023-05-20T12:44:04.920Z,49.9
2023-05-20T12:45:20.173Z,53.8
2023-05-20T12:46:36.428Z,47.3
2023-05-20T12:47:52.657Z,45.4
2023-05-20T12:49:08.895Z,50.5
2023-05-20T12:50:25.151Z,52.5
2023-05-20T12:51:41.374Z,45.7
2023-05-20T12:52:57.627Z,48
2023-05-20T12:54:13.856Z,51.2
2023-05-20T12:55:30.104Z,50.4
2023-05-20T12:56:46.351Z,47.2
2023-05-20T12:58:02.582Z,45.2
2023-05-20T12:59:18.815Z,49.9
2023-05-20T13:00:35.073Z,82.6
2023-05-20T13:01:50.310Z,83.1
2023-05-20T13:03:06.564Z,83.7
2023-05-20T13:04:22.803Z,83.7
2023-05-20T13:05:39.043Z,84.4
2023-05-20T13:06:55.283Z,84.2
2023-05-20T13:08:11.000Z,84.5
2023-05-20T13:09:27.752Z,84.2
2023-05-20T13:10:43.995Z,84.5
2023-05-20T13:12:00.246Z,84.4
2023-05-20T13:13:16.482Z,47.8
2023-05-20T13:14:32.724Z,46.5
2023-05-20T13:15:48.953Z,83.1
2023-05-20T13:17:05.198Z,84.5
2023-05-20T13:18:20.449Z,83.9
2023-05-20T13:19:36.692Z,83.9
2023-05-20T13:20:52.941Z,84.2
2023-05-20T13:22:09.188Z,83.9
2023-05-20T13:23:25.411Z,84.2
2023-05-20T13:24:41.655Z,84.2
2023-05-20T13:25:56.917Z,83.7
2023-05-20T13:27:13.163Z,83.7
2023-05-20T13:28:29.401Z,84.1
2023-05-20T13:29:45.649Z,82.9
2023-05-20T13:31:01.872Z,83.9
2023-05-20T13:32:18.000Z,84.1
2023-05-20T13:33:34.359Z,83.7
2023-05-20T13:34:50.596Z,83.7
2023-05-20T13:36:06.853Z,83.7
2023-05-20T13:37:23.087Z,83.3
2023-05-20T13:38:39.316Z,83.7
2023-05-20T13:39:55.568Z,84.1
2023-05-20T13:41:11.797Z,83.6
2023-05-20T13:42:27.065Z,83.4
2023-05-20T13:43:43.307Z,45.7
2023-05-20T13:44:59.542Z,51.7
2023-05-20T13:46:15.782Z,44.4
2023-05-20T13:47:32.022Z,47.8
2023-05-20T13:48:48.259Z,47.6
2023-05-20T13:50:04.492Z,48
2023-05-20T13:51:20.745Z,53.3
2023-05-20T13:52:36.979Z,49.7
2023-05-20T13:53:53.217Z,46
2023-05-20T13:55:09.466Z,83.6
2023-05-20T13:56:25.701Z,83.6
2023-05-20T13:57:41.902Z,83.4
2023-05-20T13:58:57.171Z,83.4
2023-05-20T14:00:13.412Z,83.6
2023-05-20T14:01:29.643Z,83.7
2023-05-20T14:02:45.895Z,83.7
2023-05-20T14:04:02.135Z,83.7
2023-05-20T14:05:18.391Z,85.2
2023-05-20T14:06:34.612Z,83.7
2023-05-20T14:07:50.847Z,82.6
2023-05-20T14:09:07.095Z,83.1
2023-05-20T14:10:23.325Z,83.4
2023-05-20T14:11:39.574Z,83.7
2023-05-20T14:14:12.039Z,84.1
2023-05-20T14:15:27.309Z,83.7
2023-05-20T14:16:43.536Z,83.7
2023-05-20T14:17:59.786Z,83.7
2023-05-20T14:19:16.051Z,47.5
2023-05-20T14:20:32.301Z,50.1
2023-05-20T14:21:48.499Z,53.8
2023-05-20T14:23:04.745Z,46.2
2023-05-20T14:24:20.981Z,46.8
2023-05-20T14:25:37.229Z,45.9
2023-05-20T14:26:53.462Z,48.1
2023-05-20T14:28:09.701Z,46.2
2023-05-20T14:29:25.948Z,47
2023-05-20T14:30:42.182Z,48
2023-05-20T14:31:57.440Z,47.2
2023-05-20T14:33:13.688Z,45.9
2023-05-20T14:34:29.925Z,48.8
2023-05-20T14:35:46.184Z,49.9
2023-05-20T14:37:02.396Z,48.9
2023-05-20T14:38:18.639Z,46.4
2023-05-20T14:39:34.904Z,47.8
2023-05-20T14:40:51.118Z,47.8
2023-05-20T14:42:07.358Z,45.1
2023-05-20T14:43:23.608Z,47.3
2023-05-20T14:44:39.839Z,46.8
2023-05-20T14:45:56.093Z,45.4
2023-05-20T14:47:12.314Z,46.8
2023-05-20T14:48:27.571Z,48.9
2023-05-20T14:49:43.817Z,48.9
2023-05-20T14:51:00.052Z,49.4
2023-05-20T14:52:16.323Z,46.2
2023-05-20T14:53:32.549Z,83.3
2023-05-20T14:54:48.784Z,83.7
2023-05-20T14:56:05.019Z,83.7
2023-05-20T14:57:21.261Z,83.7
2023-05-20T14:58:37.531Z,83.9
2023-05-20T14:59:53.745Z,83.7
2023-05-20T15:01:09.986Z,83.7
2023-05-20T15:02:26.231Z,83.3
2023-05-20T15:03:42.456Z,83.6
2023-05-20T15:04:57.720Z,83.4
2023-05-20T15:06:13.952Z,83.4
2023-05-20T15:07:30.207Z,83.3
2023-05-20T15:08:46.448Z,83.1
2023-05-20T15:10:02.703Z,83.1
2023-05-20T15:11:18.925Z,83.4
2023-05-20T15:12:35.161Z,82.9
2023-05-20T15:13:51.409Z,83.3
2023-05-20T15:15:07.651Z,83.7
2023-05-20T15:16:23.881Z,83.3
2023-05-20T15:17:40.110Z,83.6
2023-05-20T15:18:56.354Z,83.6
2023-05-20T15:20:12.591Z,82.5
2023-05-20T15:21:27.850Z,83.3
2023-05-20T15:22:44.094Z,83.7
2023-05-20T15:24:00.333Z,83.6
2023-05-20T15:25:16.582Z,48.5
2023-05-20T15:26:32.846Z,48.6
2023-05-20T15:27:49.053Z,50.9
2023-05-20T15:29:05.297Z,50.7
2023-05-20T15:30:21.529Z,45.7
2023-05-20T15:31:37.774Z,53.8
2023-05-20T15:32:54.013Z,47.6
2023-05-20T15:34:10.269Z,46.2
2023-05-20T15:35:26.509Z,45.7
2023-05-20T15:36:42.749Z,47.8
2023-05-20T15:37:57.991Z,48.8
2023-05-20T15:39:14.275Z,48.3
2023-05-20T15:40:30.469Z,52.3
2023-05-20T15:41:46.725Z,47
2023-05-20T15:43:02.958Z,47
2023-05-20T15:44:19.192Z,48.5
2023-05-20T15:45:35.442Z,46.8
2023-05-20T15:46:51.675Z,45.7
2023-05-20T15:48:07.927Z,45.1
2023-05-20T15:49:24.154Z,48.8
2023-05-20T15:50:40.399Z,46.8
2023-05-20T15:51:56.645Z,45.9
2023-05-20T15:53:12.886Z,46.7
2023-05-20T15:54:28.127Z,47.3
2023-05-20T15:55:44.366Z,45.9
2023-05-20T15:57:00.606Z,69.6
2023-05-20T15:58:16.847Z,51.8
2023-05-20T15:59:33.118Z,47.8
2023-05-20T16:00:49.342Z,48.6
2023-05-20T16:02:05.585Z,47.2
2023-05-20T16:03:21.824Z,46.2
2023-05-20T16:04:38.056Z,44.7
2023-05-20T16:05:54.298Z,49.6
2023-05-20T16:07:10.541Z,48.6
2023-05-20T16:08:26.780Z,51.7
2023-05-20T16:09:43.016Z,54.1
2023-05-20T16:10:58.274Z,48.6
2023-05-20T16:12:14.515Z,50.7
2023-05-20T16:13:30.744Z,50.2
2023-05-20T16:14:46.985Z,45.1
2023-05-20T16:16:03.226Z,45.7
2023-05-20T16:17:19.481Z,49.9
2023-05-20T16:18:35.706Z,47.6
2023-05-20T16:19:51.988Z,47.3
2023-05-20T16:21:08.198Z,56.2
2023-05-20T16:22:24.435Z,45.7
2023-05-20T16:23:40.680Z,50.1
2023-05-20T16:24:56.921Z,47.5
2023-05-20T16:26:13.161Z,45.6
2023-05-20T16:27:28.436Z,50.5
2023-05-20T16:28:44.657Z,60.5
2023-05-20T16:30:00.882Z,56
2023-05-20T16:31:17.140Z,48.3
2023-05-20T16:32:33.380Z,44.7
2023-05-20T16:33:49.617Z,47.3
2023-05-20T16:35:05.859Z,48.1
2023-05-20T16:36:22.100Z,48.3
2023-05-20T16:37:38.339Z,44.9
2023-05-20T16:38:54.579Z,51.4
2023-05-20T16:40:10.806Z,52.6
2023-05-20T16:42:43.323Z,44.7
2023-05-20T16:43:58.575Z,44.6
2023-05-20T16:45:14.822Z,46.8
2023-05-20T16:46:31.029Z,43.1
2023-05-20T16:47:47.264Z,47.8
2023-05-20T16:49:03.501Z,44.3
2023-05-20T16:50:19.748Z,45.4
2023-05-20T16:51:35.990Z,47.5
2023-05-20T16:52:52.256Z,46.7
2023-05-20T16:54:08.473Z,46.8
2023-05-20T16:55:24.700Z,47.8
2023-05-20T16:56:40.961Z,45.6
2023-05-20T16:57:57.186Z,50.1
2023-05-20T16:59:13.435Z,50.1
2023-05-20T17:00:28.685Z,53.3
2023-05-20T17:01:44.921Z,48.8
2023-05-20T17:03:01.195Z,44.1
2023-05-20T17:04:17.416Z,45.6
2023-05-20T17:05:33.645Z,54.1